sensor_id;sensor_type;location;lat;lon;timestamp;pressure;altitude;pressure_sealevel;temperature;humidity
80644;BME280;70010;60.224;24.712;2023-05-19T00:00:51;102799.85;;;2.53;54.94
80644;BME280;70010;60.224;24.712;2023-05-19T00:03:16;102798.52;;;3.04;52.84
80644;BME280;70010;60.224;24.712;2023-05-19T00:05:42;102799.74;;;3.29;51.69
80644;BME280;70010;60.224;24.712;2023-05-19T00:08:08;102796.43;;;3.09;52.99
80644;BME280;70010;60.224;24.712;2023-05-19T00:10:32;102798.95;;;3.66;51.38
80644;BME280;70010;60.224;24.712;2023-05-19T00:12:58;102802.60;;;2.73;53.56
80644;BME280;70010;60.224;24.712;2023-05-19T00:15:23;102806.22;;;2.25;54.87
80644;BME280;70010;60.224;24.712;2023-05-19T00:17:48;102810.58;;;2.06;56.49
80644;BME280;70010;60.224;24.712;2023-05-19T00:20:13;102813.28;;;2.08;56.52
80644;BME280;70010;60.224;24.712;2023-05-19T00:22:39;102815.29;;;1.95;56.85
80644;BME280;70010;60.224;24.712;2023-05-19T00:25:05;102820.13;;;2.13;56.35
80644;BME280;70010;60.224;24.712;2023-05-19T00:27:30;102822.35;;;1.63;57.41
80644;BME280;70010;60.224;24.712;2023-05-19T00:29:55;102827.62;;;2.27;56.42
80644;BME280;70010;60.224;24.712;2023-05-19T00:32:20;102827.11;;;2.84;54.12
80644;BME280;70010;60.224;24.712;2023-05-19T00:34:46;102827.14;;;3.09;53.02
80644;BME280;70010;60.224;24.712;2023-05-19T00:37:11;102831.26;;;2.50;54.35
80644;BME280;70010;60.224;24.712;2023-05-19T00:39:37;102835.59;;;2.48;53.64
80644;BME280;70010;60.224;24.712;2023-05-19T00:42:02;102840.61;;;2.81;53.55
80644;BME280;70010;60.224;24.712;2023-05-19T00:44:27;102845.02;;;3.11;51.70
80644;BME280;70010;60.224;24.712;2023-05-19T00:46:53;102846.95;;;3.78;49.73
80644;BME280;70010;60.224;24.712;2023-05-19T00:49:18;102847.49;;;2.79;52.97
80644;BME280;70010;60.224;24.712;2023-05-19T00:51:44;102852.98;;;2.25;54.03
80644;BME280;70010;60.224;24.712;2023-05-19T00:54:09;102852.56;;;1.43;57.18
80644;BME280;70010;60.224;24.712;2023-05-19T00:56:34;102854.86;;;1.89;56.45
80644;BME280;70010;60.224;24.712;2023-05-19T00:59:00;102858.01;;;1.78;56.63
80644;BME280;70010;60.224;24.712;2023-05-19T01:01:26;102863.52;;;2.27;54.97
80644;BME280;70010;60.224;24.712;2023-05-19T01:03:51;102863.32;;;2.37;53.77
80644;BME280;70010;60.224;24.712;2023-05-19T01:06:16;102861.94;;;1.58;56.00
80644;BME280;70010;60.224;24.712;2023-05-19T01:08:41;102864.54;;;1.66;56.41
80644;BME280;70010;60.224;24.712;2023-05-19T01:11:07;102865.80;;;1.14;57.66
80644;BME280;70010;60.224;24.712;2023-05-19T01:13:33;102868.41;;;1.36;57.85
80644;BME280;70010;60.224;24.712;2023-05-19T01:16:02;102871.86;;;1.51;57.35
80644;BME280;70010;60.224;24.712;2023-05-19T01:18:31;102873.79;;;1.47;57.49
80644;BME280;70010;60.224;24.712;2023-05-19T01:20:53;102873.45;;;1.53;56.83
80644;BME280;70010;60.224;24.712;2023-05-19T01:23:26;102876.61;;;1.11;58.12
80644;BME280;70010;60.224;24.712;2023-05-19T01:28:15;102880.24;;;1.03;59.04
80644;BME280;70010;60.224;24.712;2023-05-19T01:30:33;102883.99;;;1.02;59.00
80644;BME280;70010;60.224;24.712;2023-05-19T01:32:59;102885.97;;;0.82;59.48
80644;BME280;70010;60.224;24.712;2023-05-19T01:35:22;102884.92;;;0.91;59.18
80644;BME280;70010;60.224;24.712;2023-05-19T01:37:46;102889.36;;;0.54;60.17
80644;BME280;70010;60.224;24.712;2023-05-19T01:40:12;102894.58;;;0.57;60.10
80644;BME280;70010;60.224;24.712;2023-05-19T01:42:38;102895.67;;;0.69;59.82
80644;BME280;70010;60.224;24.712;2023-05-19T01:45:03;102898.79;;;0.57;60.15
80644;BME280;70010;60.224;24.712;2023-05-19T01:47:28;102902.55;;;0.45;60.43
80644;BME280;70010;60.224;24.712;2023-05-19T01:49:53;102905.53;;;0.49;60.22
80644;BME280;70010;60.224;24.712;2023-05-19T01:52:18;102912.44;;;0.61;59.97
80644;BME280;70010;60.224;24.712;2023-05-19T01:54:44;102904.53;;;0.87;58.80
80644;BME280;70010;60.224;24.712;2023-05-19T01:57:15;102912.87;;;0.45;60.19
80644;BME280;70010;60.224;24.712;2023-05-19T01:59:41;102913.22;;;0.28;61.35
80644;BME280;70010;60.224;24.712;2023-05-19T02:02:01;102906.98;;;1.03;58.96
80644;BME280;70010;60.224;24.712;2023-05-19T02:04:33;102915.15;;;0.71;59.65
80644;BME280;70010;60.224;24.712;2023-05-19T02:06:56;102914.68;;;0.80;60.41
80644;BME280;70010;60.224;24.712;2023-05-19T02:09:22;102914.17;;;0.56;60.02
80644;BME280;70010;60.224;24.712;2023-05-19T02:11:46;102914.30;;;0.48;61.25
80644;BME280;70010;60.224;24.712;2023-05-19T02:14:12;102912.79;;;0.31;61.18
80644;BME280;70010;60.224;24.712;2023-05-19T02:16:33;102914.80;;;0.30;60.83
80644;BME280;70010;60.224;24.712;2023-05-19T02:18:58;102915.12;;;0.57;61.18
80644;BME280;70010;60.224;24.712;2023-05-19T02:21:24;102917.68;;;0.43;61.76
80644;BME280;70010;60.224;24.712;2023-05-19T02:23:49;102918.51;;;0.63;61.18
80644;BME280;70010;60.224;24.712;2023-05-19T02:26:14;102916.72;;;0.31;62.04
80644;BME280;70010;60.224;24.712;2023-05-19T02:28:40;102917.42;;;0.76;61.00
80644;BME280;70010;60.224;24.712;2023-05-19T02:31:05;102916.75;;;0.36;61.06
80644;BME280;70010;60.224;24.712;2023-05-19T02:33:30;102920.26;;;0.72;61.09
80644;BME280;70010;60.224;24.712;2023-05-19T02:35:56;102919.91;;;0.47;61.68
80644;BME280;70010;60.224;24.712;2023-05-19T02:38:21;102923.92;;;0.70;61.39
80644;BME280;70010;60.224;24.712;2023-05-19T02:40:47;102922.55;;;0.53;60.64
80644;BME280;70010;60.224;24.712;2023-05-19T02:43:12;102923.24;;;0.52;60.57
80644;BME280;70010;60.224;24.712;2023-05-19T02:45:37;102924.32;;;0.64;60.90
80644;BME280;70010;60.224;24.712;2023-05-19T02:48:03;102927.28;;;0.91;60.27
80644;BME280;70010;60.224;24.712;2023-05-19T02:50:28;102929.14;;;0.50;60.76
80644;BME280;70010;60.224;24.712;2023-05-19T02:52:54;102930.79;;;0.26;60.80
80644;BME280;70010;60.224;24.712;2023-05-19T02:55:19;102921.95;;;1.74;57.53
80644;BME280;70010;60.224;24.712;2023-05-19T02:57:45;102920.91;;;3.53;52.43
80644;BME280;70010;60.224;24.712;2023-05-19T03:00:11;102924.98;;;2.37;54.08
80644;BME280;70010;60.224;24.712;2023-05-19T03:02:35;102928.43;;;1.76;55.60
80644;BME280;70010;60.224;24.712;2023-05-19T03:05:01;102929.69;;;1.92;56.30
80644;BME280;70010;60.224;24.712;2023-05-19T03:07:26;102931.57;;;1.65;56.76
80644;BME280;70010;60.224;24.712;2023-05-19T03:09:52;102928.65;;;3.28;52.81
80644;BME280;70010;60.224;24.712;2023-05-19T03:12:17;102923.39;;;3.42;51.02
80644;BME280;70010;60.224;24.712;2023-05-19T03:14:42;102923.48;;;5.70;46.03
80644;BME280;70010;60.224;24.712;2023-05-19T03:17:08;102934.63;;;3.98;49.10
80644;BME280;70010;60.224;24.712;2023-05-19T03:19:33;102932.26;;;3.25;50.21
80644;BME280;70010;60.224;24.712;2023-05-19T03:21:59;102935.60;;;3.22;51.48
80644;BME280;70010;60.224;24.712;2023-05-19T03:24:24;102935.22;;;2.72;52.79
80644;BME280;70010;60.224;24.712;2023-05-19T03:26:50;102936.85;;;3.54;50.49
80644;BME280;70010;60.224;24.712;2023-05-19T03:29:15;102937.69;;;3.58;50.32
80644;BME280;70010;60.224;24.712;2023-05-19T03:31:40;102939.79;;;2.68;52.71
80644;BME280;70010;60.224;24.712;2023-05-19T03:34:06;102939.22;;;3.69;50.38
80644;BME280;70010;60.224;24.712;2023-05-19T03:36:31;102940.48;;;4.31;48.72
80644;BME280;70010;60.224;24.712;2023-05-19T03:38:56;102936.58;;;6.62;43.76
80644;BME280;70010;60.224;24.712;2023-05-19T03:41:22;102938.95;;;7.16;42.48
80644;BME280;70010;60.224;24.712;2023-05-19T03:43:47;102942.62;;;5.39;45.57
80644;BME280;70010;60.224;24.712;2023-05-19T03:46:12;102938.15;;;5.08;46.39
80644;BME280;70010;60.224;24.712;2023-05-19T03:48:38;102937.98;;;7.14;42.67
80644;BME280;70010;60.224;24.712;2023-05-19T03:51:03;102943.72;;;5.19;46.21
80644;BME280;70010;60.224;24.712;2023-05-19T03:53:28;102946.00;;;5.54;46.22
80644;BME280;70010;60.224;24.712;2023-05-19T03:55:54;102945.99;;;4.74;46.44
80644;BME280;70010;60.224;24.712;2023-05-19T03:58:19;102945.60;;;6.04;44.42
80644;BME280;70010;60.224;24.712;2023-05-19T04:00:44;102943.59;;;7.38;42.43
80644;BME280;70010;60.224;24.712;2023-05-19T04:03:10;102948.04;;;5.97;44.00
80644;BME280;70010;60.224;24.712;2023-05-19T04:05:35;102955.16;;;3.77;48.86
80644;BME280;70010;60.224;24.712;2023-05-19T04:08:00;102950.66;;;6.79;43.17
80644;BME280;70010;60.224;24.712;2023-05-19T04:10:26;102959.16;;;4.81;47.43
80644;BME280;70010;60.224;24.712;2023-05-19T04:12:51;102960.84;;;4.62;47.47
80644;BME280;70010;60.224;24.712;2023-05-19T04:15:16;102954.59;;;5.99;44.35
80644;BME280;70010;60.224;24.712;2023-05-19T04:17:42;102953.82;;;6.49;43.29
80644;BME280;70010;60.224;24.712;2023-05-19T04:20:08;102955.03;;;7.44;42.24
80644;BME280;70010;60.224;24.712;2023-05-19T04:22:33;102963.37;;;4.27;48.23
80644;BME280;70010;60.224;24.712;2023-05-19T04:24:58;102958.19;;;6.68;43.58
80644;BME280;70010;60.224;24.712;2023-05-19T04:27:23;102959.20;;;6.77;44.10
80644;BME280;70010;60.224;24.712;2023-05-19T04:29:48;102959.68;;;6.14;44.56
80644;BME280;70010;60.224;24.712;2023-05-19T04:32:14;102967.07;;;4.46;47.29
80644;BME280;70010;60.224;24.712;2023-05-19T04:34:39;102965.39;;;4.21;48.25
80644;BME280;70010;60.224;24.712;2023-05-19T04:37:05;102961.43;;;5.77;44.43
80644;BME280;70010;60.224;24.712;2023-05-19T04:39:30;102961.53;;;6.15;42.99
80644;BME280;70010;60.224;24.712;2023-05-19T04:41:55;102966.87;;;5.01;45.20
80644;BME280;70010;60.224;24.712;2023-05-19T04:44:20;102960.63;;;7.10;41.08
80644;BME280;70010;60.224;24.712;2023-05-19T04:46:46;102960.06;;;5.86;43.79
80644;BME280;70010;60.224;24.712;2023-05-19T04:49:11;102962.09;;;6.10;43.35
80644;BME280;70010;60.224;24.712;2023-05-19T04:51:36;102963.23;;;6.64;42.07
80644;BME280;70010;60.224;24.712;2023-05-19T04:54:02;102965.37;;;5.48;44.27
80644;BME280;70010;60.224;24.712;2023-05-19T04:56:27;102965.32;;;7.04;41.46
80644;BME280;70010;60.224;24.712;2023-05-19T04:58:52;102966.32;;;8.23;39.53
80644;BME280;70010;60.224;24.712;2023-05-19T05:01:18;102973.32;;;6.13;42.28
80644;BME280;70010;60.224;24.712;2023-05-19T05:03:43;102975.46;;;6.69;41.63
80644;BME280;70010;60.224;24.712;2023-05-19T05:06:09;102976.06;;;7.44;40.10
80644;BME280;70010;60.224;24.712;2023-05-19T05:08:34;102979.17;;;7.59;40.48
80644;BME280;70010;60.224;24.712;2023-05-19T05:11:00;102981.81;;;6.79;40.52
80644;BME280;70010;60.224;24.712;2023-05-19T05:13:25;102983.01;;;7.04;40.64
80644;BME280;70010;60.224;24.712;2023-05-19T05:15:50;102983.77;;;8.39;37.80
80644;BME280;70010;60.224;24.712;2023-05-19T05:18:16;102977.65;;;8.13;37.92
80644;BME280;70010;60.224;24.712;2023-05-19T05:20:41;102979.71;;;9.29;36.39
80644;BME280;70010;60.224;24.712;2023-05-19T05:23:06;102983.59;;;9.26;35.69
80644;BME280;70010;60.224;24.712;2023-05-19T05:25:32;102979.19;;;8.18;37.31
80644;BME280;70010;60.224;24.712;2023-05-19T05:27:57;102981.39;;;8.29;36.70
80644;BME280;70010;60.224;24.712;2023-05-19T05:30:22;102985.44;;;7.38;38.25
80644;BME280;70010;60.224;24.712;2023-05-19T05:32:47;102983.66;;;7.24;38.17
80644;BME280;70010;60.224;24.712;2023-05-19T05:35:13;102985.19;;;8.78;36.20
80644;BME280;70010;60.224;24.712;2023-05-19T05:37:38;102985.31;;;6.24;39.81
80644;BME280;70010;60.224;24.712;2023-05-19T05:40:04;102990.76;;;6.15;41.02
80644;BME280;70010;60.224;24.712;2023-05-19T05:42:29;102989.34;;;8.59;36.74
80644;BME280;70010;60.224;24.712;2023-05-19T05:44:54;102985.08;;;9.87;34.54
80644;BME280;70010;60.224;24.712;2023-05-19T05:47:20;102979.51;;;10.39;33.64
80644;BME280;70010;60.224;24.712;2023-05-19T05:49:45;102985.03;;;9.74;33.66
80644;BME280;70010;60.224;24.712;2023-05-19T05:52:12;102975.67;;;10.03;33.11
80644;BME280;70010;60.224;24.712;2023-05-19T05:54:36;102975.72;;;10.05;32.25
80644;BME280;70010;60.224;24.712;2023-05-19T05:57:01;102983.78;;;7.94;35.04
80644;BME280;70010;60.224;24.712;2023-05-19T05:59:26;102987.11;;;7.43;35.40
80644;BME280;70010;60.224;24.712;2023-05-19T06:01:52;102988.90;;;9.58;32.16
80644;BME280;70010;60.224;24.712;2023-05-19T06:04:18;102982.90;;;10.31;30.52
80644;BME280;70010;60.224;24.712;2023-05-19T06:06:43;102991.04;;;8.57;32.43
80644;BME280;70010;60.224;24.712;2023-05-19T06:09:08;102990.47;;;7.59;34.68
80644;BME280;70010;60.224;24.712;2023-05-19T06:11:33;102986.72;;;6.46;36.64
80644;BME280;70010;60.224;24.712;2023-05-19T06:13:59;102984.77;;;8.84;33.57
80644;BME280;70010;60.224;24.712;2023-05-19T06:16:24;102992.55;;;9.55;32.67
80644;BME280;70010;60.224;24.712;2023-05-19T06:18:50;102982.57;;;10.52;31.25
80644;BME280;70010;60.224;24.712;2023-05-19T06:21:15;102983.90;;;9.99;32.08
80644;BME280;70010;60.224;24.712;2023-05-19T06:23:42;102984.52;;;10.10;31.81
80644;BME280;70010;60.224;24.712;2023-05-19T06:26:06;102987.67;;;9.68;32.56
80644;BME280;70010;60.224;24.712;2023-05-19T06:28:32;102994.91;;;7.52;36.18
80644;BME280;70010;60.224;24.712;2023-05-19T06:30:57;102995.54;;;6.13;38.90
80644;BME280;70010;60.224;24.712;2023-05-19T06:33:22;102995.99;;;9.44;33.52
80644;BME280;70010;60.224;24.712;2023-05-19T06:35:47;102990.06;;;10.21;32.07
80644;BME280;70010;60.224;24.712;2023-05-19T06:38:12;102995.02;;;7.18;37.71
80644;BME280;70010;60.224;24.712;2023-05-19T06:40:38;102995.06;;;8.86;34.96
80644;BME280;70010;60.224;24.712;2023-05-19T06:43:03;102997.28;;;8.61;34.06
80644;BME280;70010;60.224;24.712;2023-05-19T06:45:28;102998.71;;;9.36;32.44
80644;BME280;70010;60.224;24.712;2023-05-19T06:47:54;102998.21;;;10.77;30.17
80644;BME280;70010;60.224;24.712;2023-05-19T06:50:20;102999.74;;;11.59;29.21
80644;BME280;70010;60.224;24.712;2023-05-19T06:52:45;102999.40;;;11.14;29.45
80644;BME280;70010;60.224;24.712;2023-05-19T06:55:10;103003.91;;;8.82;31.84
80644;BME280;70010;60.224;24.712;2023-05-19T06:57:36;103005.81;;;9.34;31.86
80644;BME280;70010;60.224;24.712;2023-05-19T07:00:01;103008.00;;;8.73;32.49
80644;BME280;70010;60.224;24.712;2023-05-19T07:02:26;103003.95;;;10.56;30.26
80644;BME280;70010;60.224;24.712;2023-05-19T07:04:51;103019.85;;;9.74;31.34
80644;BME280;70010;60.224;24.712;2023-05-19T07:07:17;103009.39;;;8.30;33.80
80644;BME280;70010;60.224;24.712;2023-05-19T07:09:42;103007.48;;;9.90;31.13
80644;BME280;70010;60.224;24.712;2023-05-19T07:12:07;103012.41;;;9.91;30.91
80644;BME280;70010;60.224;24.712;2023-05-19T07:14:33;103009.12;;;10.60;29.53
80644;BME280;70010;60.224;24.712;2023-05-19T07:16:58;103000.85;;;11.32;28.60
80644;BME280;70010;60.224;24.712;2023-05-19T07:19:23;103010.62;;;8.80;32.79
80644;BME280;70010;60.224;24.712;2023-05-19T07:21:49;103008.92;;;8.47;33.92
80644;BME280;70010;60.224;24.712;2023-05-19T07:24:14;103010.22;;;8.98;32.79
80644;BME280;70010;60.224;24.712;2023-05-19T07:26:40;103001.57;;;10.88;29.87
80644;BME280;70010;60.224;24.712;2023-05-19T07:29:04;103008.81;;;9.78;31.43
80644;BME280;70010;60.224;24.712;2023-05-19T07:31:30;103002.94;;;11.31;29.27
80644;BME280;70010;60.224;24.712;2023-05-19T07:33:55;103000.11;;;11.08;29.95
80644;BME280;70010;60.224;24.712;2023-05-19T07:36:20;103003.87;;;12.53;27.79
80644;BME280;70010;60.224;24.712;2023-05-19T07:38:46;103012.75;;;11.78;28.25
80644;BME280;70010;60.224;24.712;2023-05-19T07:41:11;103012.55;;;10.59;29.12
80644;BME280;70010;60.224;24.712;2023-05-19T07:43:36;103010.71;;;10.45;29.69
80644;BME280;70010;60.224;24.712;2023-05-19T07:46:02;103004.08;;;11.66;27.66
80644;BME280;70010;60.224;24.712;2023-05-19T07:48:27;103009.53;;;11.69;27.71
80644;BME280;70010;60.224;24.712;2023-05-19T07:50:52;103012.30;;;10.79;27.91
80644;BME280;70010;60.224;24.712;2023-05-19T07:53:18;103006.17;;;12.56;26.21
80644;BME280;70010;60.224;24.712;2023-05-19T07:55:43;103016.25;;;10.92;27.40
80644;BME280;70010;60.224;24.712;2023-05-19T07:58:08;103011.89;;;11.74;27.00
80644;BME280;70010;60.224;24.712;2023-05-19T08:00:33;103010.15;;;13.07;25.05
80644;BME280;70010;60.224;24.712;2023-05-19T08:02:59;103010.37;;;14.00;23.58
80644;BME280;70010;60.224;24.712;2023-05-19T08:05:24;103017.03;;;12.06;25.14
80644;BME280;70010;60.224;24.712;2023-05-19T08:07:49;103014.21;;;13.65;24.12
80644;BME280;70010;60.224;24.712;2023-05-19T08:10:14;103004.33;;;14.61;23.16
80644;BME280;70010;60.224;24.712;2023-05-19T08:12:40;103003.95;;;14.71;23.12
80644;BME280;70010;60.224;24.712;2023-05-19T08:15:06;103008.56;;;13.68;24.47
80644;BME280;70010;60.224;24.712;2023-05-19T08:17:30;103007.69;;;14.34;23.49
80644;BME280;70010;60.224;24.712;2023-05-19T08:19:55;103009.85;;;13.57;24.81
80644;BME280;70010;60.224;24.712;2023-05-19T08:22:21;102999.39;;;15.89;22.52
80644;BME280;70010;60.224;24.712;2023-05-19T08:24:46;102996.00;;;15.46;22.84
80644;BME280;70010;60.224;24.712;2023-05-19T08:27:11;103000.93;;;13.72;24.79
80644;BME280;70010;60.224;24.712;2023-05-19T08:29:37;103000.68;;;13.64;25.23
80644;BME280;70010;60.224;24.712;2023-05-19T08:32:02;102982.83;;;15.11;23.58
80644;BME280;70010;60.224;24.712;2023-05-19T08:34:27;102985.75;;;15.30;23.34
80644;BME280;70010;60.224;24.712;2023-05-19T08:36:52;102996.19;;;14.56;23.99
80644;BME280;70010;60.224;24.712;2023-05-19T08:39:18;102991.64;;;13.04;25.41
80644;BME280;70010;60.224;24.712;2023-05-19T08:41:43;102983.32;;;12.77;26.40
80644;BME280;70010;60.224;24.712;2023-05-19T08:44:08;102976.51;;;14.94;24.20
80644;BME280;70010;60.224;24.712;2023-05-19T08:46:34;102971.71;;;16.95;22.69
80644;BME280;70010;60.224;24.712;2023-05-19T08:49:04;102981.08;;;16.21;23.05
80644;BME280;70010;60.224;24.712;2023-05-19T08:51:32;102979.84;;;14.62;24.30
80644;BME280;70010;60.224;24.712;2023-05-19T08:53:50;102972.41;;;16.94;21.86
80644;BME280;70010;60.224;24.712;2023-05-19T08:56:18;102983.16;;;14.75;24.08
80644;BME280;70010;60.224;24.712;2023-05-19T08:58:41;102978.33;;;14.34;24.54
80644;BME280;70010;60.224;24.712;2023-05-19T09:01:06;102975.54;;;14.52;24.87
80644;BME280;70010;60.224;24.712;2023-05-19T09:03:31;102969.43;;;14.57;24.67
80644;BME280;70010;60.224;24.712;2023-05-19T09:05:56;102970.85;;;17.69;21.76
80644;BME280;70010;60.224;24.712;2023-05-19T09:08:21;102966.88;;;17.82;21.35
80644;BME280;70010;60.224;24.712;2023-05-19T09:10:46;102964.40;;;17.19;22.57
80644;BME280;70010;60.224;24.712;2023-05-19T09:13:12;102966.16;;;18.38;20.76
80644;BME280;70010;60.224;24.712;2023-05-19T09:15:38;102967.96;;;15.37;23.54
80644;BME280;70010;60.224;24.712;2023-05-19T09:18:05;102967.49;;;13.62;25.85
80644;BME280;70010;60.224;24.712;2023-05-19T09:20:29;102963.97;;;14.35;25.06
80644;BME280;70010;60.224;24.712;2023-05-19T09:22:53;102954.88;;;14.80;24.25
80644;BME280;70010;60.224;24.712;2023-05-19T09:25:18;102954.26;;;14.27;25.56
80644;BME280;70010;60.224;24.712;2023-05-19T09:27:45;102951.74;;;18.04;21.80
80644;BME280;70010;60.224;24.712;2023-05-19T09:30:09;102955.41;;;16.09;23.40
80644;BME280;70010;60.224;24.712;2023-05-19T09:32:34;102946.83;;;17.02;22.57
80644;BME280;70010;60.224;24.712;2023-05-19T09:35:01;102954.63;;;14.39;24.92
80644;BME280;70010;60.224;24.712;2023-05-19T09:37:26;102947.58;;;18.15;21.08
80644;BME280;70010;60.224;24.712;2023-05-19T09:39:50;102941.70;;;17.14;21.89
80644;BME280;70010;60.224;24.712;2023-05-19T09:42:15;102936.33;;;17.00;22.62
80644;BME280;70010;60.224;24.712;2023-05-19T09:44:40;102939.82;;;15.28;25.76
80644;BME280;70010;60.224;24.712;2023-05-19T09:47:08;102939.34;;;14.71;26.75
80644;BME280;70010;60.224;24.712;2023-05-19T09:49:31;102940.60;;;13.86;27.56
80644;BME280;70010;60.224;24.712;2023-05-19T09:51:57;102933.13;;;15.89;24.99
80644;BME280;70010;60.224;24.712;2023-05-19T09:54:23;102934.28;;;15.88;25.04
80644;BME280;70010;60.224;24.712;2023-05-19T09:56:51;102943.40;;;16.18;24.07
80644;BME280;70010;60.224;24.712;2023-05-19T09:59:13;102932.18;;;16.55;24.06
80644;BME280;70010;60.224;24.712;2023-05-19T10:01:37;102927.27;;;18.15;22.52
80644;BME280;70010;60.224;24.712;2023-05-19T10:04:03;102923.56;;;17.77;23.15
80644;BME280;70010;60.224;24.712;2023-05-19T10:06:28;102936.43;;;18.43;22.77
80644;BME280;70010;60.224;24.712;2023-05-19T10:08:54;102941.70;;;18.41;22.58
80644;BME280;70010;60.224;24.712;2023-05-19T10:11:18;102927.24;;;15.78;25.46
80644;BME280;70010;60.224;24.712;2023-05-19T10:13:44;102934.54;;;14.26;27.57
80644;BME280;70010;60.224;24.712;2023-05-19T10:16:09;102924.29;;;16.60;25.14
80644;BME280;70010;60.224;24.712;2023-05-19T10:18:34;102926.82;;;19.03;22.74
80644;BME280;70010;60.224;24.712;2023-05-19T10:21:00;102923.49;;;18.62;22.80
80644;BME280;70010;60.224;24.712;2023-05-19T10:23:25;102927.77;;;18.95;22.37
80644;BME280;70010;60.224;24.712;2023-05-19T10:25:50;102941.07;;;16.74;24.68
80644;BME280;70010;60.224;24.712;2023-05-19T10:28:17;102934.56;;;17.67;23.38
80644;BME280;70010;60.224;24.712;2023-05-19T10:30:43;102927.34;;;17.63;23.36
80644;BME280;70010;60.224;24.712;2023-05-19T10:33:09;102929.52;;;17.98;23.06
80644;BME280;70010;60.224;24.712;2023-05-19T10:38:04;102917.79;;;17.50;23.99
80644;BME280;70010;60.224;24.712;2023-05-19T10:40:26;102914.02;;;19.13;22.11
80644;BME280;70010;60.224;24.712;2023-05-19T10:42:56;102924.26;;;19.41;21.88
80644;BME280;70010;60.224;24.712;2023-05-19T10:45:15;102920.51;;;19.54;21.72
80644;BME280;70010;60.224;24.712;2023-05-19T10:47:39;102925.76;;;18.35;22.97
80644;BME280;70010;60.224;24.712;2023-05-19T10:50:04;102910.31;;;19.82;21.56
80644;BME280;70010;60.224;24.712;2023-05-19T10:52:29;102917.51;;;19.58;21.85
80644;BME280;70010;60.224;24.712;2023-05-19T10:54:53;102925.72;;;18.94;22.44
80644;BME280;70010;60.224;24.712;2023-05-19T10:57:20;102918.06;;;16.15;24.75
80644;BME280;70010;60.224;24.712;2023-05-19T10:59:44;102911.94;;;16.85;25.15
80644;BME280;70010;60.224;24.712;2023-05-19T11:02:10;102918.78;;;19.39;22.49
80644;BME280;70010;60.224;24.712;2023-05-19T11:04:44;102918.15;;;19.89;21.70
80644;BME280;70010;60.224;24.712;2023-05-19T11:07:01;102916.38;;;20.27;21.12
80644;BME280;70010;60.224;24.712;2023-05-19T11:09:25;102920.91;;;17.70;24.19
80644;BME280;70010;60.224;24.712;2023-05-19T11:11:51;102915.38;;;18.44;23.36
80644;BME280;70010;60.224;24.712;2023-05-19T11:14:17;102910.89;;;20.88;21.31
80644;BME280;70010;60.224;24.712;2023-05-19T11:16:41;102904.77;;;19.84;21.59
80644;BME280;70010;60.224;24.712;2023-05-19T11:19:06;102915.18;;;21.23;20.53
80644;BME280;70010;60.224;24.712;2023-05-19T11:23:56;102908.36;;;19.39;22.24
80644;BME280;70010;60.224;24.712;2023-05-19T11:28:47;102902.40;;;22.63;19.36
80644;BME280;70010;60.224;24.712;2023-05-19T11:31:12;102908.68;;;21.06;20.66
80644;BME280;70010;60.224;24.712;2023-05-19T11:33:38;102905.15;;;20.24;21.32
80644;BME280;70010;60.224;24.712;2023-05-19T11:36:03;102914.69;;;18.82;22.68
80644;BME280;70010;60.224;24.712;2023-05-19T11:38:28;102914.32;;;22.05;20.08
80644;BME280;70010;60.224;24.712;2023-05-19T11:40:54;102902.56;;;20.25;21.43
80644;BME280;70010;60.224;24.712;2023-05-19T11:43:19;102906.11;;;20.02;22.24
80644;BME280;70010;60.224;24.712;2023-05-19T11:45:44;102903.46;;;22.14;20.36
80644;BME280;70010;60.224;24.712;2023-05-19T11:48:10;102901.58;;;20.71;21.41
80644;BME280;70010;60.224;24.712;2023-05-19T11:50:34;102898.50;;;21.02;21.42
80644;BME280;70010;60.224;24.712;2023-05-19T11:53:00;102902.82;;;20.93;21.40
80644;BME280;70010;60.224;24.712;2023-05-19T11:55:25;102900.70;;;21.66;20.39
80644;BME280;70010;60.224;24.712;2023-05-19T11:57:55;102885.31;;;24.00;18.89
80644;BME280;70010;60.224;24.712;2023-05-19T12:00:15;102898.40;;;21.96;20.28
80644;BME280;70010;60.224;24.712;2023-05-19T12:02:40;102899.37;;;21.99;20.29
80644;BME280;70010;60.224;24.712;2023-05-19T12:05:06;102900.01;;;20.83;21.37
80644;BME280;70010;60.224;24.712;2023-05-19T12:07:31;102895.46;;;19.73;22.33
80644;BME280;70010;60.224;24.712;2023-05-19T12:09:59;102894.89;;;20.24;22.13
80644;BME280;70010;60.224;24.712;2023-05-19T12:12:22;102895.12;;;22.86;20.53
80644;BME280;70010;60.224;24.712;2023-05-19T12:14:49;102892.00;;;20.71;22.44
80644;BME280;70010;60.224;24.712;2023-05-19T12:17:14;102894.63;;;18.69;24.42
80644;BME280;70010;60.224;24.712;2023-05-19T12:19:38;102888.69;;;23.58;19.67
80644;BME280;70010;60.224;24.712;2023-05-19T12:22:05;102899.48;;;19.08;25.07
80644;BME280;70010;60.224;24.712;2023-05-19T12:24:28;102890.38;;;21.65;21.89
80644;BME280;70010;60.224;24.712;2023-05-19T12:29:18;102885.38;;;19.63;23.41
80644;BME280;70010;60.224;24.712;2023-05-19T12:31:45;102896.83;;;20.88;22.42
80644;BME280;70010;60.224;24.712;2023-05-19T12:34:11;102892.02;;;21.10;22.06
80644;BME280;70010;60.224;24.712;2023-05-19T12:36:34;102893.60;;;19.45;23.76
80644;BME280;70010;60.224;24.712;2023-05-19T12:38:59;102889.74;;;23.33;20.61
80644;BME280;70010;60.224;24.712;2023-05-19T12:41:25;102890.53;;;22.82;20.45
80644;BME280;70010;60.224;24.712;2023-05-19T12:43:50;102892.72;;;24.03;19.36
80644;BME280;70010;60.224;24.712;2023-05-19T12:46:18;102896.01;;;21.27;21.66